sensor_id;sensor_type;location;lat;lon;timestamp;P1;durP1;ratioP1;P2;durP2;ratioP2
12861;SDS011;6499;66.348;14.134;2023-05-02T00:00:40;1.00;;;0.90;;
12861;SDS011;6499;66.348;14.134;2023-05-02T00:03:09;1.20;;;0.93;;
12861;SDS011;6499;66.348;14.134;2023-05-02T00:05:36;0.80;;;0.80;;
12861;SDS011;6499;66.348;14.134;2023-05-02T00:08:02;1.37;;;0.80;;
12861;SDS011;6499;66.348;14.134;2023-05-02T00:10:29;1.73;;;0.83;;
12861;SDS011;6499;66.348;14.134;2023-05-02T00:12:57;2.00;;;1.13;;
12861;SDS011;6499;66.348;14.134;2023-05-02T00:15:23;0.70;;;0.70;;
12861;SDS011;6499;66.348;14.134;2023-05-02T00:17:51;1.00;;;0.90;;
12861;SDS011;6499;66.348;14.134;2023-05-02T00:20:17;0.97;;;0.83;;
12861;SDS011;6499;66.348;14.134;2023-05-02T00:22:44;0.80;;;0.80;;
12861;SDS011;6499;66.348;14.134;2023-05-02T00:25:11;0.90;;;0.63;;
12861;SDS011;6499;66.348;14.134;2023-05-02T00:27:40;1.13;;;0.80;;
12861;SDS011;6499;66.348;14.134;2023-05-02T00:30:09;0.60;;;0.57;;
12861;SDS011;6499;66.348;14.134;2023-05-02T00:32:35;0.73;;;0.60;;
12861;SDS011;6499;66.348;14.134;2023-05-02T00:35:02;0.93;;;0.80;;
12861;SDS011;6499;66.348;14.134;2023-05-02T00:37:28;0.70;;;0.70;;
12861;SDS011;6499;66.348;14.134;2023-05-02T00:39:55;0.90;;;0.60;;
12861;SDS011;6499;66.348;14.134;2023-05-02T00:42:21;1.03;;;0.80;;
12861;SDS011;6499;66.348;14.134;2023-05-02T00:44:48;0.77;;;0.73;;
12861;SDS011;6499;66.348;14.134;2023-05-02T00:47:16;0.87;;;0.83;;
12861;SDS011;6499;66.348;14.134;2023-05-02T00:49:42;0.77;;;0.70;;
12861;SDS011;6499;66.348;14.134;2023-05-02T00:52:09;0.67;;;0.67;;
12861;SDS011;6499;66.348;14.134;2023-05-02T00:54:36;0.50;;;0.50;;
12861;SDS011;6499;66.348;14.134;2023-05-02T00:57:03;1.00;;;0.70;;
12861;SDS011;6499;66.348;14.134;2023-05-02T00:59:29;1.10;;;0.70;;
12861;SDS011;6499;66.348;14.134;2023-05-02T01:01:58;1.53;;;0.93;;
12861;SDS011;6499;66.348;14.134;2023-05-02T01:04:30;1.60;;;0.60;;
12861;SDS011;6499;66.348;14.134;2023-05-02T01:07:13;0.77;;;0.70;;
12861;SDS011;6499;66.348;14.134;2023-05-02T01:09:44;0.60;;;0.60;;
12861;SDS011;6499;66.348;14.134;2023-05-02T01:12:17;0.50;;;0.47;;
12861;SDS011;6499;66.348;14.134;2023-05-02T01:14:46;0.70;;;0.70;;
12861;SDS011;6499;66.348;14.134;2023-05-02T01:17:14;0.47;;;0.47;;
12861;SDS011;6499;66.348;14.134;2023-05-02T01:19:43;0.87;;;0.50;;
12861;SDS011;6499;66.348;14.134;2023-05-02T01:22:13;0.80;;;0.60;;
12861;SDS011;6499;66.348;14.134;2023-05-02T01:24:42;0.60;;;0.60;;
12861;SDS011;6499;66.348;14.134;2023-05-02T01:27:14;0.93;;;0.80;;
12861;SDS011;6499;66.348;14.134;2023-05-02T01:29:45;0.63;;;0.47;;
12861;SDS011;6499;66.348;14.134;2023-05-02T01:32:13;0.53;;;0.50;;
12861;SDS011;6499;66.348;14.134;2023-05-02T01:34:41;0.70;;;0.60;;
12861;SDS011;6499;66.348;14.134;2023-05-02T01:37:09;0.80;;;0.60;;
12861;SDS011;6499;66.348;14.134;2023-05-02T01:39:36;0.60;;;0.57;;
12861;SDS011;6499;66.348;14.134;2023-05-02T01:42:03;0.73;;;0.60;;
12861;SDS011;6499;66.348;14.134;2023-05-02T01:44:30;0.50;;;0.50;;
12861;SDS011;6499;66.348;14.134;2023-05-02T01:46:59;0.60;;;0.60;;
12861;SDS011;6499;66.348;14.134;2023-05-02T01:49:27;0.57;;;0.57;;
12861;SDS011;6499;66.348;14.134;2023-05-02T01:51:54;0.60;;;0.60;;
12861;SDS011;6499;66.348;14.134;2023-05-02T01:54:22;1.17;;;0.73;;
12861;SDS011;6499;66.348;14.134;2023-05-02T01:56:50;0.53;;;0.53;;
12861;SDS011;6499;66.348;14.134;2023-05-02T01:59:17;0.50;;;0.50;;
12861;SDS011;6499;66.348;14.134;2023-05-02T02:01:44;0.60;;;0.60;;
12861;SDS011;6499;66.348;14.134;2023-05-02T02:04:13;0.60;;;0.40;;
12861;SDS011;6499;66.348;14.134;2023-05-02T02:06:41;0.90;;;0.57;;
12861;SDS011;6499;66.348;14.134;2023-05-02T02:09:09;0.93;;;0.50;;
12861;SDS011;6499;66.348;14.134;2023-05-02T02:11:36;0.40;;;0.40;;
12861;SDS011;6499;66.348;14.134;2023-05-02T02:14:05;1.23;;;0.60;;
12861;SDS011;6499;66.348;14.134;2023-05-02T02:16:33;0.60;;;0.60;;
12861;SDS011;6499;66.348;14.134;2023-05-02T02:19:03;0.67;;;0.67;;
12861;SDS011;6499;66.348;14.134;2023-05-02T02:21:32;0.60;;;0.60;;
12861;SDS011;6499;66.348;14.134;2023-05-02T02:24:00;0.70;;;0.70;;
12861;SDS011;6499;66.348;14.134;2023-05-02T02:26:27;1.07;;;0.40;;
12861;SDS011;6499;66.348;14.134;2023-05-02T02:28:53;0.53;;;0.53;;
12861;SDS011;6499;66.348;14.134;2023-05-02T02:31:20;0.60;;;0.50;;
12861;SDS011;6499;66.348;14.134;2023-05-02T02:33:49;0.80;;;0.50;;
12861;SDS011;6499;66.348;14.134;2023-05-02T02:36:18;0.93;;;0.43;;
12861;SDS011;6499;66.348;14.134;2023-05-02T02:38:49;0.70;;;0.70;;
12861;SDS011;6499;66.348;14.134;2023-05-02T02:41:21;0.57;;;0.50;;
12861;SDS011;6499;66.348;14.134;2023-05-02T02:43:52;0.60;;;0.60;;
12861;SDS011;6499;66.348;14.134;2023-05-02T02:46:23;0.70;;;0.50;;
12861;SDS011;6499;66.348;14.134;2023-05-02T02:48:54;0.50;;;0.50;;
12861;SDS011;6499;66.348;14.134;2023-05-02T02:51:30;2.30;;;0.70;;
12861;SDS011;6499;66.348;14.134;2023-05-02T02:54:08;0.67;;;0.67;;
12861;SDS011;6499;66.348;14.134;2023-05-02T02:56:38;0.93;;;0.60;;
12861;SDS011;6499;66.348;14.134;2023-05-02T02:59:08;0.60;;;0.40;;
12861;SDS011;6499;66.348;14.134;2023-05-02T03:01:38;0.43;;;0.43;;
12861;SDS011;6499;66.348;14.134;2023-05-02T03:04:06;1.40;;;0.50;;
12861;SDS011;6499;66.348;14.134;2023-05-02T03:06:33;0.40;;;0.40;;
12861;SDS011;6499;66.348;14.134;2023-05-02T03:09:01;0.60;;;0.60;;
12861;SDS011;6499;66.348;14.134;2023-05-02T03:11:29;1.33;;;0.63;;
12861;SDS011;6499;66.348;14.134;2023-05-02T03:13:55;2.80;;;0.77;;
12861;SDS011;6499;66.348;14.134;2023-05-02T03:16:30;0.40;;;0.40;;
12861;SDS011;6499;66.348;14.134;2023-05-02T03:18:57;1.50;;;0.73;;
12861;SDS011;6499;66.348;14.134;2023-05-02T03:21:24;0.57;;;0.57;;
12861;SDS011;6499;66.348;14.134;2023-05-02T03:23:51;0.80;;;0.80;;
12861;SDS011;6499;66.348;14.134;2023-05-02T03:26:18;0.50;;;0.50;;
12861;SDS011;6499;66.348;14.134;2023-05-02T03:28:45;0.47;;;0.47;;
12861;SDS011;6499;66.348;14.134;2023-05-02T03:31:12;0.50;;;0.50;;
12861;SDS011;6499;66.348;14.134;2023-05-02T03:33:38;0.50;;;0.50;;
12861;SDS011;6499;66.348;14.134;2023-05-02T03:36:05;0.70;;;0.70;;
12861;SDS011;6499;66.348;14.134;2023-05-02T03:38:32;0.77;;;0.60;;
12861;SDS011;6499;66.348;14.134;2023-05-02T03:40:58;0.50;;;0.43;;
12861;SDS011;6499;66.348;14.134;2023-05-02T03:43:26;0.60;;;0.60;;
12861;SDS011;6499;66.348;14.134;2023-05-02T03:45:53;0.60;;;0.60;;
12861;SDS011;6499;66.348;14.134;2023-05-02T03:48:19;0.60;;;0.60;;
12861;SDS011;6499;66.348;14.134;2023-05-02T03:50:46;0.50;;;0.50;;
12861;SDS011;6499;66.348;14.134;2023-05-02T03:53:13;0.50;;;0.50;;
12861;SDS011;6499;66.348;14.134;2023-05-02T03:55:40;0.70;;;0.70;;
12861;SDS011;6499;66.348;14.134;2023-05-02T03:58:06;0.80;;;0.50;;
12861;SDS011;6499;66.348;14.134;2023-05-02T04:00:34;0.60;;;0.60;;
12861;SDS011;6499;66.348;14.134;2023-05-02T04:03:02;0.43;;;0.43;;
12861;SDS011;6499;66.348;14.134;2023-05-02T04:05:29;0.50;;;0.50;;
12861;SDS011;6499;66.348;14.134;2023-05-02T04:07:55;0.53;;;0.53;;
12861;SDS011;6499;66.348;14.134;2023-05-02T04:10:22;0.53;;;0.47;;
12861;SDS011;6499;66.348;14.134;2023-05-02T04:12:49;1.07;;;0.53;;
12861;SDS011;6499;66.348;14.134;2023-05-02T04:15:15;0.57;;;0.57;;
12861;SDS011;6499;66.348;14.134;2023-05-02T04:17:43;1.33;;;0.47;;
12861;SDS011;6499;66.348;14.134;2023-05-02T04:20:10;0.70;;;0.60;;
12861;SDS011;6499;66.348;14.134;2023-05-02T04:22:37;1.40;;;0.60;;
12861;SDS011;6499;66.348;14.134;2023-05-02T04:25:05;0.83;;;0.60;;
12861;SDS011;6499;66.348;14.134;2023-05-02T04:27:31;0.50;;;0.50;;
12861;SDS011;6499;66.348;14.134;2023-05-02T04:29:58;0.60;;;0.60;;
12861;SDS011;6499;66.348;14.134;2023-05-02T04:32:24;0.93;;;0.63;;
12861;SDS011;6499;66.348;14.134;2023-05-02T04:34:53;1.87;;;0.80;;
12861;SDS011;6499;66.348;14.134;2023-05-02T04:37:20;2.23;;;0.57;;
12861;SDS011;6499;66.348;14.134;2023-05-02T04:39:46;3.17;;;0.60;;
12861;SDS011;6499;66.348;14.134;2023-05-02T04:42:13;0.93;;;0.60;;
12861;SDS011;6499;66.348;14.134;2023-05-02T04:44:39;0.60;;;0.50;;
12861;SDS011;6499;66.348;14.134;2023-05-02T04:47:06;0.50;;;0.50;;
12861;SDS011;6499;66.348;14.134;2023-05-02T04:49:32;0.50;;;0.50;;
12861;SDS011;6499;66.348;14.134;2023-05-02T04:52:00;0.50;;;0.50;;
12861;SDS011;6499;66.348;14.134;2023-05-02T04:54:27;2.03;;;1.00;;
12861;SDS011;6499;66.348;14.134;2023-05-02T04:56:53;2.53;;;0.63;;
12861;SDS011;6499;66.348;14.134;2023-05-02T04:59:20;0.60;;;0.50;;
12861;SDS011;6499;66.348;14.134;2023-05-02T05:01:46;1.97;;;0.67;;
12861;SDS011;6499;66.348;14.134;2023-05-02T05:04:13;3.40;;;0.60;;
12861;SDS011;6499;66.348;14.134;2023-05-02T05:06:39;1.23;;;0.60;;
12861;SDS011;6499;66.348;14.134;2023-05-02T05:09:07;1.43;;;0.60;;
12861;SDS011;6499;66.348;14.134;2023-05-02T05:11:34;0.50;;;0.50;;
12861;SDS011;6499;66.348;14.134;2023-05-02T05:14:01;1.37;;;0.50;;
12861;SDS011;6499;66.348;14.134;2023-05-02T05:16:29;4.17;;;0.60;;
12861;SDS011;6499;66.348;14.134;2023-05-02T05:18:56;0.60;;;0.60;;
12861;SDS011;6499;66.348;14.134;2023-05-02T05:21:22;0.70;;;0.43;;
12861;SDS011;6499;66.348;14.134;2023-05-02T05:23:49;0.80;;;0.50;;
12861;SDS011;6499;66.348;14.134;2023-05-02T05:26:20;0.87;;;0.60;;
12861;SDS011;6499;66.348;14.134;2023-05-02T05:28:47;1.30;;;0.60;;
12861;SDS011;6499;66.348;14.134;2023-05-02T05:31:15;0.97;;;0.70;;
12861;SDS011;6499;66.348;14.134;2023-05-02T05:33:43;6.00;;;4.40;;
12861;SDS011;6499;66.348;14.134;2023-05-02T05:36:10;24.97;;;13.33;;
12861;SDS011;6499;66.348;14.134;2023-05-02T05:38:37;27.10;;;14.67;;
12861;SDS011;6499;66.348;14.134;2023-05-02T05:41:03;14.77;;;8.40;;
12861;SDS011;6499;66.348;14.134;2023-05-02T05:43:33;3.00;;;1.80;;
12861;SDS011;6499;66.348;14.134;2023-05-02T05:46:00;5.47;;;1.93;;
12861;SDS011;6499;66.348;14.134;2023-05-02T05:48:27;2.97;;;1.37;;
12861;SDS011;6499;66.348;14.134;2023-05-02T05:50:53;2.30;;;1.10;;
12861;SDS011;6499;66.348;14.134;2023-05-02T05:53:20;6.77;;;1.23;;
12861;SDS011;6499;66.348;14.134;2023-05-02T05:55:47;4.73;;;0.93;;
12861;SDS011;6499;66.348;14.134;2023-05-02T05:58:14;4.70;;;1.10;;
12861;SDS011;6499;66.348;14.134;2023-05-02T06:00:42;1.83;;;0.77;;
12861;SDS011;6499;66.348;14.134;2023-05-02T06:03:09;2.67;;;1.03;;
12861;SDS011;6499;66.348;14.134;2023-05-02T06:05:36;3.37;;;0.80;;
12861;SDS011;6499;66.348;14.134;2023-05-02T06:08:03;5.07;;;1.00;;
12861;SDS011;6499;66.348;14.134;2023-05-02T06:10:30;1.33;;;0.70;;
12861;SDS011;6499;66.348;14.134;2023-05-02T06:12:59;0.53;;;0.53;;
12861;SDS011;6499;66.348;14.134;2023-05-02T06:15:26;0.70;;;0.60;;
12861;SDS011;6499;66.348;14.134;2023-05-02T06:17:54;1.13;;;0.50;;
12861;SDS011;6499;66.348;14.134;2023-05-02T06:20:20;0.90;;;0.40;;
12861;SDS011;6499;66.348;14.134;2023-05-02T06:22:47;0.90;;;0.40;;
12861;SDS011;6499;66.348;14.134;2023-05-02T06:25:13;0.80;;;0.40;;
12861;SDS011;6499;66.348;14.134;2023-05-02T06:27:40;2.50;;;0.70;;
12861;SDS011;6499;66.348;14.134;2023-05-02T06:30:07;5.63;;;0.73;;
12861;SDS011;6499;66.348;14.134;2023-05-02T06:32:33;1.50;;;0.60;;
12861;SDS011;6499;66.348;14.134;2023-05-02T06:35:01;0.40;;;0.40;;
12861;SDS011;6499;66.348;14.134;2023-05-02T06:37:31;0.83;;;0.50;;
12861;SDS011;6499;66.348;14.134;2023-05-02T06:39:58;2.10;;;0.60;;
12861;SDS011;6499;66.348;14.134;2023-05-02T06:42:24;1.77;;;0.70;;
12861;SDS011;6499;66.348;14.134;2023-05-02T06:44:51;1.27;;;0.70;;
12861;SDS011;6499;66.348;14.134;2023-05-02T06:47:17;3.90;;;0.83;;
12861;SDS011;6499;66.348;14.134;2023-05-02T06:49:44;1.13;;;0.70;;
12861;SDS011;6499;66.348;14.134;2023-05-02T06:52:12;0.57;;;0.40;;
12861;SDS011;6499;66.348;14.134;2023-05-02T06:54:38;0.70;;;0.60;;
12861;SDS011;6499;66.348;14.134;2023-05-02T06:57:06;1.90;;;0.60;;
12861;SDS011;6499;66.348;14.134;2023-05-02T06:59:33;1.00;;;0.53;;
12861;SDS011;6499;66.348;14.134;2023-05-02T07:01:59;1.50;;;0.60;;
12861;SDS011;6499;66.348;14.134;2023-05-02T07:04:26;0.40;;;0.40;;
12861;SDS011;6499;66.348;14.134;2023-05-02T07:06:52;2.67;;;0.50;;
12861;SDS011;6499;66.348;14.134;2023-05-02T07:09:20;0.60;;;0.40;;
12861;SDS011;6499;66.348;14.134;2023-05-02T07:11:47;2.30;;;0.60;;
12861;SDS011;6499;66.348;14.134;2023-05-02T07:14:13;1.70;;;0.60;;
12861;SDS011;6499;66.348;14.134;2023-05-02T07:16:40;0.83;;;0.33;;
12861;SDS011;6499;66.348;14.134;2023-05-02T07:19:06;1.03;;;0.40;;
12861;SDS011;6499;66.348;14.134;2023-05-02T07:21:33;1.13;;;0.43;;
12861;SDS011;6499;66.348;14.134;2023-05-02T07:24:00;1.17;;;0.50;;
12861;SDS011;6499;66.348;14.134;2023-05-02T07:26:28;0.47;;;0.40;;
12861;SDS011;6499;66.348;14.134;2023-05-02T07:28:54;0.73;;;0.40;;
12861;SDS011;6499;66.348;14.134;2023-05-02T07:31:21;1.70;;;0.53;;
12861;SDS011;6499;66.348;14.134;2023-05-02T07:33:54;1.50;;;0.50;;
12861;SDS011;6499;66.348;14.134;2023-05-02T07:36:22;4.07;;;0.53;;
12861;SDS011;6499;66.348;14.134;2023-05-02T07:38:49;1.00;;;0.60;;
12861;SDS011;6499;66.348;14.134;2023-05-02T07:41:15;2.10;;;0.70;;
12861;SDS011;6499;66.348;14.134;2023-05-02T07:43:43;1.73;;;0.90;;
12861;SDS011;6499;66.348;14.134;2023-05-02T07:46:10;2.30;;;1.37;;
12861;SDS011;6499;66.348;14.134;2023-05-02T07:48:37;6.63;;;2.70;;
12861;SDS011;6499;66.348;14.134;2023-05-02T07:51:05;5.30;;;2.83;;
12861;SDS011;6499;66.348;14.134;2023-05-02T07:53:32;4.63;;;2.90;;
12861;SDS011;6499;66.348;14.134;2023-05-02T07:55:59;5.07;;;3.10;;
12861;SDS011;6499;66.348;14.134;2023-05-02T07:58:26;6.57;;;2.77;;
12861;SDS011;6499;66.348;14.134;2023-05-02T08:00:56;8.60;;;4.00;;
12861;SDS011;6499;66.348;14.134;2023-05-02T08:03:22;10.23;;;5.20;;
12861;SDS011;6499;66.348;14.134;2023-05-02T08:05:49;12.10;;;5.50;;
12861;SDS011;6499;66.348;14.134;2023-05-02T08:08:16;7.50;;;3.70;;
12861;SDS011;6499;66.348;14.134;2023-05-02T08:10:43;7.37;;;3.40;;
12861;SDS011;6499;66.348;14.134;2023-05-02T08:13:11;5.90;;;2.53;;
12861;SDS011;6499;66.348;14.134;2023-05-02T08:15:38;3.37;;;1.60;;
12861;SDS011;6499;66.348;14.134;2023-05-02T08:18:09;4.00;;;2.17;;
12861;SDS011;6499;66.348;14.134;2023-05-02T08:20:36;4.00;;;2.10;;
12861;SDS011;6499;66.348;14.134;2023-05-02T08:23:03;2.80;;;1.50;;
12861;SDS011;6499;66.348;14.134;2023-05-02T08:25:30;3.53;;;1.80;;
12861;SDS011;6499;66.348;14.134;2023-05-02T08:27:57;3.83;;;1.63;;
12861;SDS011;6499;66.348;14.134;2023-05-02T08:30:27;9.43;;;1.43;;
12861;SDS011;6499;66.348;14.134;2023-05-02T08:32:54;2.80;;;1.10;;
12861;SDS011;6499;66.348;14.134;2023-05-02T08:35:23;1.37;;;0.80;;
12861;SDS011;6499;66.348;14.134;2023-05-02T08:37:50;4.10;;;0.80;;
12861;SDS011;6499;66.348;14.134;2023-05-02T08:40:17;1.23;;;0.73;;
12861;SDS011;6499;66.348;14.134;2023-05-02T08:42:47;1.80;;;1.10;;
12861;SDS011;6499;66.348;14.134;2023-05-02T08:45:21;3.17;;;0.90;;
12861;SDS011;6499;66.348;14.134;2023-05-02T08:48:04;1.80;;;0.80;;
12861;SDS011;6499;66.348;14.134;2023-05-02T09:02:55;1.10;;;0.80;;
12861;SDS011;6499;66.348;14.134;2023-05-02T09:05:27;1.53;;;1.03;;
12861;SDS011;6499;66.348;14.134;2023-05-02T09:08:12;3.23;;;1.07;;
12861;SDS011;6499;66.348;14.134;2023-05-02T09:10:46;2.27;;;0.83;;
12861;SDS011;6499;66.348;14.134;2023-05-02T09:13:31;2.80;;;1.00;;
12861;SDS011;6499;66.348;14.134;2023-05-02T09:15:59;3.00;;;1.23;;
12861;SDS011;6499;66.348;14.134;2023-05-02T09:18:33;1.50;;;1.10;;
12861;SDS011;6499;66.348;14.134;2023-05-02T09:21:02;1.37;;;1.03;;
12861;SDS011;6499;66.348;14.134;2023-05-02T09:23:36;1.20;;;0.90;;
12861;SDS011;6499;66.348;14.134;2023-05-02T09:26:10;1.50;;;1.10;;
12861;SDS011;6499;66.348;14.134;2023-05-02T09:28:44;2.27;;;1.20;;
12861;SDS011;6499;66.348;14.134;2023-05-02T09:31:15;9.10;;;1.73;;
12861;SDS011;6499;66.348;14.134;2023-05-02T09:33:51;6.17;;;1.80;;
12861;SDS011;6499;66.348;14.134;2023-05-02T09:36:18;2.63;;;1.03;;
12861;SDS011;6499;66.348;14.134;2023-05-02T09:38:48;2.13;;;0.93;;
12861;SDS011;6499;66.348;14.134;2023-05-02T09:41:16;1.63;;;1.10;;
12861;SDS011;6499;66.348;14.134;2023-05-02T09:43:53;1.67;;;1.03;;
12861;SDS011;6499;66.348;14.134;2023-05-02T09:46:20;1.23;;;0.90;;
12861;SDS011;6499;66.348;14.134;2023-05-02T09:48:55;1.43;;;1.00;;
12861;SDS011;6499;66.348;14.134;2023-05-02T09:51:24;1.53;;;0.77;;
12861;SDS011;6499;66.348;14.134;2023-05-02T09:53:51;2.57;;;1.00;;
12861;SDS011;6499;66.348;14.134;2023-05-02T09:56:20;1.13;;;0.77;;
12861;SDS011;6499;66.348;14.134;2023-05-02T09:58:47;1.20;;;1.00;;
12861;SDS011;6499;66.348;14.134;2023-05-02T10:01:21;1.93;;;0.90;;
12861;SDS011;6499;66.348;14.134;2023-05-02T10:03:48;2.67;;;1.10;;
12861;SDS011;6499;66.348;14.134;2023-05-02T10:06:24;1.67;;;0.90;;
12861;SDS011;6499;66.348;14.134;2023-05-02T10:08:55;2.03;;;1.03;;
12861;SDS011;6499;66.348;14.134;2023-05-02T10:11:21;1.20;;;0.70;;
12861;SDS011;6499;66.348;14.134;2023-05-02T10:13:49;2.53;;;1.10;;
12861;SDS011;6499;66.348;14.134;2023-05-02T10:16:20;2.20;;;0.80;;
12861;SDS011;6499;66.348;14.134;2023-05-02T10:18:51;1.23;;;1.00;;
12861;SDS011;6499;66.348;14.134;2023-05-02T10:21:19;2.40;;;0.80;;
12861;SDS011;6499;66.348;14.134;2023-05-02T10:23:55;3.40;;;0.80;;
12861;SDS011;6499;66.348;14.134;2023-05-02T10:26:22;1.10;;;0.70;;
12861;SDS011;6499;66.348;14.134;2023-05-02T10:28:49;5.33;;;0.87;;
12861;SDS011;6499;66.348;14.134;2023-05-02T10:31:16;1.53;;;0.80;;
12861;SDS011;6499;66.348;14.134;2023-05-02T10:33:47;1.97;;;0.80;;
12861;SDS011;6499;66.348;14.134;2023-05-02T10:36:16;0.67;;;0.43;;
12861;SDS011;6499;66.348;14.134;2023-05-02T10:38:54;1.33;;;0.60;;
12861;SDS011;6499;66.348;14.134;2023-05-02T10:41:24;1.60;;;0.80;;
12861;SDS011;6499;66.348;14.134;2023-05-02T10:43:52;0.70;;;0.70;;
12861;SDS011;6499;66.348;14.134;2023-05-02T10:46:28;9.13;;;1.20;;
12861;SDS011;6499;66.348;14.134;2023-05-02T10:48:59;1.43;;;0.73;;
12861;SDS011;6499;66.348;14.134;2023-05-02T10:51:26;0.90;;;0.60;;
12861;SDS011;6499;66.348;14.134;2023-05-02T10:54:20;3.03;;;0.80;;
12861;SDS011;6499;66.348;14.134;2023-05-02T10:57:03;2.43;;;0.67;;
12861;SDS011;6499;66.348;14.134;2023-05-02T10:59:30;0.90;;;0.40;;
12861;SDS011;6499;66.348;14.134;2023-05-02T11:01:57;0.67;;;0.50;;
12861;SDS011;6499;66.348;14.134;2023-05-02T11:04:24;3.13;;;0.60;;
12861;SDS011;6499;66.348;14.134;2023-05-02T11:09:38;0.50;;;0.50;;
12861;SDS011;6499;66.348;14.134;2023-05-02T11:12:04;1.43;;;0.60;;
12861;SDS011;6499;66.348;14.134;2023-05-02T11:14:46;0.90;;;0.57;;
12861;SDS011;6499;66.348;14.134;2023-05-02T11:17:14;0.73;;;0.50;;
12861;SDS011;6499;66.348;14.134;2023-05-02T11:22:31;1.10;;;0.60;;
12861;SDS011;6499;66.348;14.134;2023-05-02T11:25:00;1.00;;;0.60;;
12861;SDS011;6499;66.348;14.134;2023-05-02T11:27:36;1.80;;;0.87;;
12861;SDS011;6499;66.348;14.134;2023-05-02T11:30:03;0.50;;;0.50;;
12861;SDS011;6499;66.348;14.134;2023-05-02T11:35:16;2.20;;;0.60;;
12861;SDS011;6499;66.348;14.134;2023-05-02T11:37:43;2.30;;;0.50;;
12861;SDS011;6499;66.348;14.134;2023-05-02T11:40:19;0.97;;;0.60;;
12861;SDS011;6499;66.348;14.134;2023-05-02T11:42:46;2.30;;;0.70;;
12861;SDS011;6499;66.348;14.134;2023-05-02T11:45:13;2.20;;;0.67;;
12861;SDS011;6499;66.348;14.134;2023-05-02T11:47:39;2.27;;;0.43;;
12861;SDS011;6499;66.348;14.134;2023-05-02T11:50:06;1.43;;;0.80;;
12861;SDS011;6499;66.348;14.134;2023-05-02T11:52:35;1.00;;;0.60;;
12861;SDS011;6499;66.348;14.134;2023-05-02T11:55:02;2.93;;;0.60;;
12861;SDS011;6499;66.348;14.134;2023-05-02T11:57:33;1.13;;;0.50;;
12861;SDS011;6499;66.348;14.134;2023-05-02T11:59:59;1.67;;;0.60;;
12861;SDS011;6499;66.348;14.134;2023-05-02T12:02:36;1.00;;;0.60;;
12861;SDS011;6499;66.348;14.134;2023-05-02T12:05:02;3.70;;;0.50;;
12861;SDS011;6499;66.348;14.134;2023-05-02T12:07:41;2.80;;;0.70;;
12861;SDS011;6499;66.348;14.134;2023-05-02T12:10:17;0.80;;;0.50;;
12861;SDS011;6499;66.348;14.134;2023-05-02T12:12:45;0.53;;;0.43;;
12861;SDS011;6499;66.348;14.134;2023-05-02T12:15:13;1.47;;;0.60;;
12861;SDS011;6499;66.348;14.134;2023-05-02T12:17:40;1.53;;;0.50;;
12861;SDS011;6499;66.348;14.134;2023-05-02T12:20:07;1.57;;;0.50;;
12861;SDS011;6499;66.348;14.134;2023-05-02T12:22:34;1.60;;;0.50;;
12861;SDS011;6499;66.348;14.134;2023-05-02T12:25:01;4.27;;;0.90;;
12861;SDS011;6499;66.348;14.134;2023-05-02T12:27:29;1.13;;;0.50;;
12861;SDS011;6499;66.348;14.134;2023-05-02T12:29:58;1.77;;;0.60;;
12861;SDS011;6499;66.348;14.134;2023-05-02T12:32:26;1.43;;;0.70;;
12861;SDS011;6499;66.348;14.134;2023-05-02T12:34:53;1.10;;;0.50;;
12861;SDS011;6499;66.348;14.134;2023-05-02T12:37:21;2.00;;;0.70;;
12861;SDS011;6499;66.348;14.134;2023-05-02T12:39:47;1.20;;;0.50;;
12861;SDS011;6499;66.348;14.134;2023-05-02T12:42:14;0.97;;;0.60;;
12861;SDS011;6499;66.348;14.134;2023-05-02T12:44:42;2.47;;;0.80;;
12861;SDS011;6499;66.348;14.134;2023-05-02T12:47:11;1.63;;;0.60;;
12861;SDS011;6499;66.348;14.134;2023-05-02T12:49:47;0.80;;;0.60;;
12861;SDS011;6499;66.348;14.134;2023-05-02T12:52:13;1.23;;;0.80;;
12861;SDS011;6499;66.348;14.134;2023-05-02T12:54:40;0.90;;;0.60;;
12861;SDS011;6499;66.348;14.134;2023-05-02T12:57:06;1.10;;;0.60;;
12861;SDS011;6499;66.348;14.134;2023-05-02T12:59:33;1.27;;;0.60;;
12861;SDS011;6499;66.348;14.134;2023-05-02T13:02:00;0.60;;;0.60;;
12861;SDS011;6499;66.348;14.134;2023-05-02T13:04:34;1.33;;;0.60;;
12861;SDS011;6499;66.348;14.134;2023-05-02T13:07:01;0.80;;;0.67;;
12861;SDS011;6499;66.348;14.134;2023-05-02T13:09:27;1.20;;;0.60;;
12861;SDS011;6499;66.348;14.134;2023-05-02T13:11:54;0.90;;;0.50;;
12861;SDS011;6499;66.348;14.134;2023-05-02T13:14:21;0.80;;;0.60;;
12861;SDS011;6499;66.348;14.134;2023-05-02T13:16:48;1.23;;;0.50;;
12861;SDS011;6499;66.348;14.134;2023-05-02T13:19:17;1.60;;;0.60;;
12861;SDS011;6499;66.348;14.134;2023-05-02T13:21:45;0.90;;;0.70;;
12861;SDS011;6499;66.348;14.134;2023-05-02T13:24:12;0.80;;;0.50;;
12861;SDS011;6499;66.348;14.134;2023-05-02T13:26:39;1.33;;;0.60;;
12861;SDS011;6499;66.348;14.134;2023-05-02T13:29:05;1.37;;;0.60;;
12861;SDS011;6499;66.348;14.134;2023-05-02T13:31:33;1.13;;;0.70;;
12861;SDS011;6499;66.348;14.134;2023-05-02T13:34:00;1.30;;;0.60;;
12861;SDS011;6499;66.348;14.134;2023-05-02T13:36:26;0.77;;;0.57;;
12861;SDS011;6499;66.348;14.134;2023-05-02T13:38:54;1.23;;;0.60;;
12861;SDS011;6499;66.348;14.134;2023-05-02T13:41:21;0.73;;;0.50;;
12861;SDS011;6499;66.348;14.134;2023-05-02T13:43:49;0.90;;;0.57;;
12861;SDS011;6499;66.348;14.134;2023-05-02T13:46:15;0.40;;;0.40;;
12861;SDS011;6499;66.348;14.134;2023-05-02T13:48:42;0.50;;;0.50;;
12861;SDS011;6499;66.348;14.134;2023-05-02T13:51:09;0.40;;;0.40;;
12861;SDS011;6499;66.348;14.134;2023-05-02T13:53:36;0.53;;;0.50;;
12861;SDS011;6499;66.348;14.134;2023-05-02T13:56:05;1.13;;;0.60;;
12861;SDS011;6499;66.348;14.134;2023-05-02T13:58:34;0.63;;;0.60;;
12861;SDS011;6499;66.348;14.134;2023-05-02T14:01:01;1.13;;;0.90;;
12861;SDS011;6499;66.348;14.134;2023-05-02T14:03:28;1.43;;;0.70;;
12861;SDS011;6499;66.348;14.134;2023-05-02T14:05:57;1.70;;;0.60;;
12861;SDS011;6499;66.348;14.134;2023-05-02T14:08:59;0.80;;;0.50;;
12861;SDS011;6499;66.348;14.134;2023-05-02T14:11:28;0.40;;;0.40;;
12861;SDS011;6499;66.348;14.134;2023-05-02T14:13:55;0.40;;;0.40;;
12861;SDS011;6499;66.348;14.134;2023-05-02T14:16:23;0.40;;;0.40;;
12861;SDS011;6499;66.348;14.134;2023-05-02T14:18:53;1.00;;;0.60;;
12861;SDS011;6499;66.348;14.134;2023-05-02T14:21:25;1.40;;;0.70;;
12861;SDS011;6499;66.348;14.134;2023-05-02T14:23:52;0.90;;;0.50;;
12861;SDS011;6499;66.348;14.134;2023-05-02T14:26:21;0.70;;;0.50;;
12861;SDS011;6499;66.348;14.134;2023-05-02T14:29:19;0.53;;;0.43;;
12861;SDS011;6499;66.348;14.134;2023-05-02T14:31:52;0.93;;;0.70;;
12861;SDS011;6499;66.348;14.134;2023-05-02T14:34:19;0.50;;;0.40;;
12861;SDS011;6499;66.348;14.134;2023-05-02T14:36:54;0.63;;;0.40;;
12861;SDS011;6499;66.348;14.134;2023-05-02T14:39:22;0.67;;;0.33;;
12861;SDS011;6499;66.348;14.134;2023-05-02T14:41:49;0.50;;;0.50;;
12861;SDS011;6499;66.348;14.134;2023-05-02T14:44:16;0.30;;;0.30;;
12861;SDS011;6499;66.348;14.134;2023-05-02T14:46:44;0.50;;;0.40;;
12861;SDS011;6499;66.348;14.134;2023-05-02T14:49:11;0.40;;;0.40;;
12861;SDS011;6499;66.348;14.134;2023-05-02T14:51:41;0.37;;;0.30;;
12861;SDS011;6499;66.348;14.134;2023-05-02T14:54:11;0.40;;;0.30;;
12861;SDS011;6499;66.348;14.134;2023-05-02T14:56:40;0.43;;;0.43;;
12861;SDS011;6499;66.348;14.134;2023-05-02T14:59:07;1.13;;;0.40;;
12861;SDS011;6499;66.348;14.134;2023-05-02T15:01:33;0.90;;;0.40;;
12861;SDS011;6499;66.348;14.134;2023-05-02T15:04:03;0.33;;;0.30;;
12861;SDS011;6499;66.348;14.134;2023-05-02T15:06:32;0.53;;;0.43;;
12861;SDS011;6499;66.348;14.134;2023-05-02T15:09:02;0.60;;;0.60;;
12861;SDS011;6499;66.348;14.134;2023-05-02T15:11:28;0.30;;;0.30;;
12861;SDS011;6499;66.348;14.134;2023-05-02T15:13:55;0.30;;;0.30;;
12861;SDS011;6499;66.348;14.134;2023-05-02T15:16:22;0.30;;;0.30;;